Time;durP1;ratioP1;P1;durP2;ratioP2;P2;SDS_P1;SDS_P2;PMS_P1;PMS_P2;Temp;Humidity;BMP_temperature;BMP_pressure;BME280_temperature;BME280_humidity;BME280_pressure;Samples;Min_cycle;Max_cycle;Signal;HPM_P1;HPM_P2
2022/03/25 00:00:25;;;;;;;52.10;23.77;;;;;;;5.92;75.26;103212.25;5074104;28;20048;-73
2022/03/25 00:02:54;;;;;;;54.60;23.63;;;;;;;5.88;75.83;103208.50;5074371;28;20054;-73
2022/03/25 00:05:22;;;;;;;56.13;24.05;;;;;;;5.87;76.01;103209.28;5074415;28;20153;-73
2022/03/25 00:07:50;;;;;;;52.28;25.35;;;;;;;5.84;76.03;103211.69;5075952;28;21850;-73
2022/03/25 00:10:19;;;;;;;51.80;23.75;;;;;;;5.80;75.63;103213.16;5072945;28;20047;-73
2022/03/25 00:12:50;;;;;;;51.08;23.83;;;;;;;5.78;76.96;103212.16;5074693;28;20048;-73
2022/03/25 00:15:19;;;;;;;51.25;23.48;;;;;;;5.75;76.52;103216.25;5066302;28;20047;-73
2022/03/25 00:17:47;;;;;;;50.28;23.77;;;;;;;5.69;75.76;103210.59;5071042;28;20139;-73
2022/03/25 00:20:15;;;;;;;54.97;23.20;;;;;;;5.70;76.33;103207.22;5072800;28;20060;-74
2022/03/25 00:22:44;;;;;;;48.28;22.50;;;;;;;5.66;75.79;103220.81;5069221;28;20145;-73
2022/03/25 00:25:12;;;;;;;46.65;23.10;;;;;;;5.64;75.57;103215.50;5073578;28;20049;-73
2022/03/25 00:27:40;;;;;;;42.65;21.13;;;;;;;5.63;74.91;103220.59;5073110;28;20068;-73
2022/03/25 00:30:11;;;;;;;55.13;22.92;;;;;;;5.59;75.27;103219.47;5057587;28;20048;-73
2022/03/25 00:32:40;;;;;;;48.97;23.90;;;;;;;5.53;75.33;103224.22;5079697;28;20097;-73
2022/03/25 00:35:10;;;;;;;51.13;22.40;;;;;;;5.48;75.17;103216.09;5062668;28;20063;-73
2022/03/25 00:37:38;;;;;;;44.53;20.65;;;;;;;5.43;75.01;103220.06;5056953;28;20046;-73
2022/03/25 00:40:08;;;;;;;44.25;21.10;;;;;;;5.39;75.34;103211.94;5074556;28;20052;-73
2022/03/25 00:42:37;;;;;;;43.95;21.65;;;;;;;5.36;75.15;103214.31;5076074;28;20048;-74
2022/03/25 00:45:06;;;;;;;45.22;21.40;;;;;;;5.32;75.21;103215.78;5071343;28;20048;-73
2022/03/25 00:47:37;;;;;;;44.88;19.65;;;;;;;5.31;75.07;103216.56;5073561;28;20044;-73
2022/03/25 00:50:07;;;;;;;46.35;22.33;;;;;;;5.27;75.26;103214.53;5073508;28;20106;-73
2022/03/25 00:52:37;;;;;;;42.95;19.90;;;;;;;5.25;74.73;103205.72;5076883;28;20048;-73
2022/03/25 00:55:07;;;;;;;52.05;21.90;;;;;;;5.25;74.30;103208.31;5065472;28;20080;-73
2022/03/25 00:57:35;;;;;;;47.22;22.65;;;;;;;5.22;74.78;103211.59;5071322;28;20059;-73
2022/03/25 01:00:05;;;;;;;47.55;21.50;;;;;;;5.17;75.39;103206.91;5072969;28;20040;-73
2022/03/25 01:02:34;;;;;;;41.72;18.75;;;;;;;5.10;74.56;103209.84;5072944;28;20036;-73
2022/03/25 01:05:07;;;;;;;39.67;17.88;;;;;;;5.11;75.54;103206.44;5069021;28;20068;-74
2022/03/25 01:07:35;;;;;;;46.60;20.85;;;;;;;5.07;75.00;103220.03;5066029;28;20354;-74
2022/03/25 01:10:07;;;;;;;43.17;20.00;;;;;;;5.02;75.60;103219.69;5072842;28;20476;-74
2022/03/25 01:12:35;;;;;;;41.88;19.33;;;;;;;4.98;75.12;103221.94;5067276;28;20054;-76
2022/03/25 01:15:08;;;;;;;45.50;19.05;;;;;;;4.96;75.49;103215.72;5077404;28;20097;-79
2022/03/25 01:17:36;;;;;;;49.60;19.55;;;;;;;4.92;75.71;103215.50;5078738;28;20051;-79
2022/03/25 01:20:09;;;;;;;40.92;18.98;;;;;;;4.92;75.82;103215.50;5082419;28;20058;-79
2022/03/25 01:22:37;;;;;;;47.83;20.90;;;;;;;4.87;76.02;103216.88;5074750;28;20154;-73
2022/03/25 01:25:08;;;;;;;43.58;20.55;;;;;;;4.84;75.79;103216.63;5069404;28;20055;-79
2022/03/25 01:27:36;;;;;;;36.70;17.02;;;;;;;4.84;75.89;103215.72;5072564;28;20146;-73
2022/03/25 01:30:05;;;;;;;40.58;19.23;;;;;;;4.82;75.89;103214.72;5068181;28;20059;-73
2022/03/25 01:32:34;;;;;;;47.58;21.63;;;;;;;4.89;76.33;103210.06;5069880;28;20451;-75
2022/03/25 01:35:09;;;;;;;49.28;21.23;;;;;;;4.93;75.42;103206.91;5068336;28;20056;-74
2022/03/25 01:37:37;;;;;;;55.10;22.17;;;;;;;4.95;75.06;103213.94;5064606;28;20048;-73
2022/03/25 01:40:09;;;;;;;48.17;21.80;;;;;;;4.95;75.74;103207.03;5068829;28;20051;-75
2022/03/25 01:42:41;;;;;;;46.28;20.67;;;;;;;4.93;75.34;103206.91;5068795;28;20052;-73
2022/03/25 01:45:12;;;;;;;48.47;21.02;;;;;;;4.90;75.29;103201.50;5078466;28;20070;-74
2022/03/25 01:47:41;;;;;;;49.20;21.33;;;;;;;4.89;75.44;103211.78;5076991;28;20542;-73
2022/03/25 01:50:19;;;;;;;47.33;20.73;;;;;;;4.83;75.19;103204.44;5057416;28;20059;-74
2022/03/25 01:52:48;;;;;;;42.83;20.38;;;;;;;4.78;75.33;103204.88;5080441;28;20089;-74
2022/03/25 01:55:21;;;;;;;47.47;22.52;;;;;;;4.76;74.98;103212.56;5076249;28;20044;-73
2022/03/25 01:57:53;;;;;;;46.70;20.95;;;;;;;4.72;74.98;103209.63;5081251;28;20056;-74
2022/03/25 02:00:21;;;;;;;49.78;21.70;;;;;;;4.69;75.15;103210.28;5076119;28;20044;-73
2022/03/25 02:02:49;;;;;;;46.20;21.77;;;;;;;4.63;74.58;103207.25;5077389;28;20040;-73
2022/03/25 02:05:19;;;;;;;47.20;21.20;;;;;;;4.58;75.19;103201.69;5072086;28;20045;-73
2022/03/25 02:07:48;;;;;;;48.15;22.83;;;;;;;4.51;75.53;103212.41;5077008;28;20049;-74
2022/03/25 02:10:17;;;;;;;53.60;24.80;;;;;;;4.46;75.66;103210.25;5074611;28;20079;-74
2022/03/25 02:12:47;;;;;;;55.75;24.13;;;;;;;4.45;75.76;103214.56;5080912;28;20514;-73
2022/03/25 02:15:15;;;;;;;50.00;22.98;;;;;;;4.38;75.53;103209.69;5081530;28;20771;-78
2022/03/25 02:17:43;;;;;;;50.78;22.80;;;;;;;4.36;75.73;103207.75;5085024;28;20092;-78
2022/03/25 02:20:12;;;;;;;59.53;24.88;;;;;;;4.31;75.41;103209.09;5079131;28;20086;-79
2022/03/25 02:22:42;;;;;;;48.17;22.63;;;;;;;4.28;75.68;103210.66;5079547;28;20058;-74
2022/03/25 02:25:14;;;;;;;59.95;23.15;;;;;;;4.27;76.28;103208.84;5077486;28;20052;-73
2022/03/25 02:27:44;;;;;;;55.58;23.75;;;;;;;4.35;76.94;103201.66;5076550;28;20253;-80
2022/03/25 02:30:13;;;;;;;56.95;26.15;;;;;;;4.34;76.70;103204.13;5070848;28;20080;-75
2022/03/25 02:32:41;;;;;;;64.35;25.13;;;;;;;4.34;76.26;103202.44;5071599;28;20048;-80
2022/03/25 02:35:10;;;;;;;61.63;26.50;;;;;;;4.43;77.38;103203.13;5074160;28;20048;-79
2022/03/25 02:37:39;;;;;;;60.85;27.20;;;;;;;4.40;77.16;103204.59;5086243;28;20124;-78
2022/03/25 02:40:11;;;;;;;63.72;26.40;;;;;;;4.34;76.67;103193.75;5081397;28;20059;-73
2022/03/25 02:42:39;;;;;;;64.07;27.70;;;;;;;4.38;77.47;103206.19;5080270;28;20052;-73
2022/03/25 02:45:09;;;;;;;67.43;27.85;;;;;;;4.39;77.75;103202.78;5075894;28;20060;-73
2022/03/25 02:47:40;;;;;;;62.42;27.48;;;;;;;4.42;78.09;103208.22;5060487;28;20044;-79
2022/03/25 02:50:08;;;;;;;65.13;28.40;;;;;;;4.41;78.31;103204.72;5073345;28;20056;-74
2022/03/25 02:52:37;;;;;;;69.38;29.13;;;;;;;4.46;79.01;103211.16;5077792;28;20119;-73
2022/03/25 02:55:08;;;;;;;71.05;29.80;;;;;;;4.49;79.00;103201.00;5074130;28;20127;-72
2022/03/25 02:57:40;;;;;;;64.88;27.65;;;;;;;4.47;78.84;103197.38;5074760;28;20048;-73
2022/03/25 03:00:11;;;;;;;69.97;30.77;;;;;;;4.49;78.82;103200.09;5081376;28;20112;-78
2022/03/25 03:02:39;;;;;;;74.32;32.10;;;;;;;4.47;78.79;103205.19;5075553;28;20048;-73
2022/03/25 03:05:09;;;;;;;75.47;31.35;;;;;;;4.42;79.05;103196.13;5075929;28;20121;-72
2022/03/25 03:07:38;;;;;;;63.95;26.58;;;;;;;4.40;79.26;103199.41;5077115;28;20519;-73
2022/03/25 03:10:09;;;;;;;61.10;26.92;;;;;;;4.37;79.18;103204.38;5074753;28;20044;-73
2022/03/25 03:12:38;;;;;;;65.90;28.90;;;;;;;4.30;79.12;103199.50;5076179;28;20036;-73
2022/03/25 03:15:09;;;;;;;63.65;29.35;;;;;;;4.20;79.18;103198.78;5077153;28;20207;-73
2022/03/25 03:17:38;;;;;;;75.32;31.83;;;;;;;4.16;79.60;103207.13;5076344;28;20048;-78
2022/03/25 03:20:08;;;;;;;69.20;31.38;;;;;;;4.14;80.05;103208.75;5078870;28;20223;-78
2022/03/25 03:22:36;;;;;;;76.30;34.30;;;;;;;4.11;80.75;103202.41;5083827;28;20419;-73
2022/03/25 03:25:07;;;;;;;72.13;31.75;;;;;;;4.08;80.79;103205.66;5077778;28;20131;-73
2022/03/25 03:27:36;;;;;;;70.10;30.75;;;;;;;4.07;79.78;103197.75;5069767;28;20051;-78
2022/03/25 03:30:05;;;;;;;66.15;29.35;;;;;;;4.06;80.38;103202.06;5081005;28;20125;-78
2022/03/25 03:32:34;;;;;;;72.28;30.50;;;;;;;4.03;80.08;103199.22;5078669;28;20089;-79
2022/03/25 03:35:04;;;;;;;70.65;30.90;;;;;;;4.03;80.99;103199.22;5076971;28;20058;-73
2022/03/25 03:37:41;;;;;;;73.43;30.45;;;;;;;4.02;81.44;103202.59;5071895;28;20036;-79
2022/03/25 03:40:11;;;;;;;72.65;32.33;;;;;;;4.00;81.42;103200.66;5070217;28;20044;-77
2022/03/25 03:42:39;;;;;;;76.55;30.15;;;;;;;3.92;81.09;103197.47;5085038;28;20124;-79
2022/03/25 03:45:08;;;;;;;65.80;28.60;;;;;;;3.89;80.62;103199.84;5079130;28;20060;-78
2022/03/25 03:47:38;;;;;;;81.32;31.08;;;;;;;3.86;81.49;103187.53;5083923;28;20063;-79
2022/03/25 03:50:09;;;;;;;76.20;32.58;;;;;;;3.89;82.72;103194.66;5084055;28;20123;-79
2022/03/25 03:52:38;;;;;;;65.68;28.48;;;;;;;3.80;81.53;103199.13;5082409;28;20060;-74
2022/03/25 03:55:07;;;;;;;76.28;32.15;;;;;;;3.76;82.55;103197.06;5065014;28;20044;-80
2022/03/25 03:57:37;;;;;;;76.65;34.78;;;;;;;3.68;82.16;103198.16;5081440;28;20048;-74
2022/03/25 04:00:06;;;;;;;80.72;31.42;;;;;;;3.59;81.54;103201.84;5073420;28;20070;-75
2022/03/25 04:02:34;;;;;;;78.65;31.52;;;;;;;3.55;82.37;103204.97;5074500;28;20120;-79
2022/03/25 04:05:04;;;;;;;80.07;31.63;;;;;;;3.52;83.21;103203.84;5079036;28;20067;-79
2022/03/25 04:07:40;;;;;;;92.35;33.72;;;;;;;3.49;83.12;103201.91;5082466;28;20048;-80
2022/03/25 04:10:09;;;;;;;77.18;33.70;;;;;;;3.43;83.38;103204.00;5079671;28;20048;-80
2022/03/25 04:12:37;;;;;;;80.35;31.73;;;;;;;3.43;83.08;103211.78;5078009;28;20058;-79
2022/03/25 04:15:09;;;;;;;93.72;35.92;;;;;;;3.47;83.93;103207.75;5080759;28;20051;-80
2022/03/25 04:17:39;;;;;;;89.07;34.90;;;;;;;3.42;83.47;103207.38;5066188;28;20101;-73
2022/03/25 04:20:13;;;;;;;85.40;36.45;;;;;;;3.43;84.21;103209.19;5074533;28;20056;-74
2022/03/25 04:22:41;;;;;;;;;;;;;;;3.42;84.02;103211.66;5080571;28;20321;-74
2022/03/25 04:25:09;;;;;;;74.25;29.48;;;;;;;3.40;83.48;103216.72;5062194;28;20173;-79
2022/03/25 04:27:47;;;;;;;72.30;31.85;;;;;;;3.35;83.77;103214.56;5082465;28;20047;-79
2022/03/25 04:30:18;;;;;;;75.50;33.17;;;;;;;3.31;83.91;103222.88;5078642;28;20196;-79
2022/03/25 04:32:46;;;;;;;91.07;34.67;;;;;;;3.27;83.66;103216.53;5076121;28;20045;-73
2022/03/25 04:35:16;;;;;;;93.95;39.08;;;;;;;3.17;84.07;103222.66;5068582;28;20047;-74
2022/03/25 04:37:44;;;;;;;89.88;34.78;;;;;;;3.14;83.68;103224.09;5074062;28;20067;-74
2022/03/25 04:40:15;;;;;;;87.32;34.45;;;;;;;3.13;85.35;103217.09;5070604;28;20066;-74
2022/03/25 04:42:47;;;;;;;80.22;33.55;;;;;;;3.09;84.40;103221.16;5079515;28;20036;-79
2022/03/25 04:45:15;;;;;;;108.55;39.00;;;;;;;3.11;85.87;103214.41;5083246;28;20113;-79
2022/03/25 04:47:44;;;;;;;92.35;36.13;;;;;;;3.07;85.63;103212.34;5074374;28;20611;-79
2022/03/25 04:50:13;;;;;;;102.05;37.95;;;;;;;3.05;85.18;103213.03;5080300;28;20048;-79
2022/03/25 04:52:43;;;;;;;99.50;37.78;;;;;;;3.04;85.37;103217.31;5081530;28;20165;-79
2022/03/25 04:55:16;;;;;;;97.72;38.33;;;;;;;3.03;85.90;103217.19;5081553;28;20059;-79
2022/03/25 04:57:48;;;;;;;111.00;38.20;;;;;;;2.97;85.29;103222.75;5082349;28;20048;-79
2022/03/25 05:00:18;;;;;;;84.88;34.90;;;;;;;2.92;84.94;103224.97;5062784;28;20087;-74
2022/03/25 05:02:46;;;;;;;107.38;39.15;;;;;;;2.92;86.21;103222.38;5076985;28;20056;-74
2022/03/25 05:05:14;;;;;;;102.50;39.40;;;;;;;2.87;85.36;103218.50;5074046;28;20058;-79
2022/03/25 05:07:44;;;;;;;98.03;36.60;;;;;;;2.83;85.49;103225.91;5079330;28;20052;-79
2022/03/25 05:10:15;;;;;;;99.78;41.65;;;;;;;2.80;86.51;103231.75;5069452;28;20684;-78
2022/03/25 05:12:45;;;;;;;99.75;39.60;;;;;;;2.74;85.94;103233.81;5081852;28;20130;-79
2022/03/25 05:15:13;;;;;;;97.60;38.63;;;;;;;2.76;87.15;103239.13;5083019;28;20052;-78
2022/03/25 05:17:47;;;;;;;100.55;39.03;;;;;;;2.77;87.31;103239.25;5080042;28;20091;-79
2022/03/25 05:20:16;;;;;;;;;;;;;;;2.72;86.42;103242.25;5086598;28;20135;-78
2022/03/25 05:22:45;;;;;;;102.88;34.80;;;;;;;2.67;86.96;103234.09;5079102;28;19967;-74
2022/03/25 05:25:14;;;;;;;105.43;38.88;;;;;;;2.60;86.78;103242.13;5080615;28;20059;-76
2022/03/25 05:27:48;;;;;;;102.28;41.70;;;;;;;2.58;87.06;103239.41;5079958;28;20123;-74
2022/03/25 05:30:19;;;;;;;91.93;35.97;;;;;;;2.53;86.49;103239.81;5069317;28;20286;-73
2022/03/25 05:32:47;;;;;;;104.65;36.10;;;;;;;2.49;85.82;103243.81;5079825;28;20109;-74
2022/03/25 05:35:18;;;;;;;101.05;38.00;;;;;;;2.47;86.50;103242.78;5079614;28;20066;-74
2022/03/25 05:37:51;;;;;;;109.80;39.95;;;;;;;2.46;86.93;103242.66;5076948;28;20048;-79
2022/03/25 05:40:20;;;;;;;114.80;40.33;;;;;;;2.47;87.26;103247.97;5073745;28;20048;-78
2022/03/25 05:42:50;;;;;;;101.88;38.63;;;;;;;2.42;86.22;103254.44;5078179;28;20062;-73
2022/03/25 05:45:19;;;;;;;107.70;40.45;;;;;;;2.42;87.08;103250.94;5075607;28;20550;-74
2022/03/25 05:47:47;;;;;;;118.68;42.92;;;;;;;2.40;86.90;103258.59;5078338;28;20134;-74
2022/03/25 05:50:15;;;;;;;111.75;41.97;;;;;;;2.42;86.94;103254.44;5074221;28;20048;-74
2022/03/25 05:52:44;;;;;;;110.60;40.03;;;;;;;2.43;86.75;103251.09;5079654;28;20052;-79
2022/03/25 05:55:16;;;;;;;117.93;42.13;;;;;;;2.45;86.64;103251.22;5072759;28;20044;-74
2022/03/25 05:57:45;;;;;;;108.95;39.40;;;;;;;2.48;87.24;103259.25;5079622;28;20056;-74
2022/03/25 06:00:16;;;;;;;96.28;38.33;;;;;;;2.51;87.60;103262.09;5063077;28;20092;-79
2022/03/25 06:02:45;;;;;;;115.40;42.25;;;;;;;2.57;88.24;103250.56;5084537;28;20036;-78
2022/03/25 06:05:13;;;;;;;109.88;42.28;;;;;;;2.62;87.47;103256.13;5082858;28;20430;-78
2022/03/25 06:07:44;;;;;;;133.43;46.38;;;;;;;2.66;87.15;103257.28;5081644;28;20094;-79
2022/03/25 06:10:14;;;;;;;118.28;43.85;;;;;;;2.76;87.76;103257.28;5077933;28;20125;-79
2022/03/25 06:12:43;;;;;;;104.97;38.88;;;;;;;2.76;86.78;103245.22;5082449;28;20113;-78
2022/03/25 06:15:12;;;;;;;112.60;39.80;;;;;;;2.81;86.62;103256.88;5081254;28;20043;-78
2022/03/25 06:17:45;;;;;;;120.43;45.63;;;;;;;2.90;87.02;103255.06;5076696;28;20056;-74
2022/03/25 06:20:14;;;;;;;103.90;40.83;;;;;;;2.97;86.45;103265.91;5079660;28;20047;-75
2022/03/25 06:22:42;;;;;;;125.70;45.13;;;;;;;3.01;86.62;103258.53;5074068;28;20044;-74
2022/03/25 06:25:13;;;;;;;120.55;45.15;;;;;;;3.11;87.66;103258.50;5078872;28;20052;-74
2022/03/25 06:27:53;;;;;;;117.43;44.75;;;;;;;3.16;86.55;103253.66;5082083;28;20055;-74
2022/03/25 06:30:22;;;;;;;125.43;45.10;;;;;;;3.23;87.14;103266.34;5079233;28;20076;-74
2022/03/25 06:32:50;;;;;;;133.60;46.28;;;;;;;3.36;87.60;103270.84;5077268;28;20131;-77
2022/03/25 06:35:18;;;;;;;133.45;48.33;;;;;;;3.46;87.51;103265.59;5082982;28;20082;-78
2022/03/25 06:37:47;;;;;;;139.10;48.75;;;;;;;3.56;88.24;103274.25;5076094;28;20921;-78
2022/03/25 06:40:15;;;;;;;137.05;51.00;;;;;;;3.73;88.13;103275.59;5080893;28;20055;-77
2022/03/25 06:42:44;;;;;;;147.15;52.50;;;;;;;3.88;88.04;103275.91;5082569;28;20036;-78
2022/03/25 06:45:15;;;;;;;168.00;58.75;;;;;;;4.23;89.41;103276.03;5080022;28;20044;-77
2022/03/25 06:47:44;;;;;;;177.98;60.65;;;;;;;4.37;89.21;103275.41;5081746;28;20173;-73
2022/03/25 06:50:16;;;;;;;153.18;54.50;;;;;;;4.48;89.42;103277.16;5077322;28;20138;-78
2022/03/25 06:52:45;;;;;;;177.70;60.13;;;;;;;4.62;89.16;103275.59;5058356;28;20530;-73
2022/03/25 06:55:14;;;;;;;163.50;55.78;;;;;;;4.72;88.81;103285.00;5075735;28;20179;-77
2022/03/25 06:57:49;;;;;;;177.63;57.50;;;;;;;4.81;88.43;103275.31;5084654;28;20060;-78
2022/03/25 07:00:19;;;;;;;191.10;64.45;;;;;;;4.95;88.36;103276.34;5084130;28;20139;-78
2022/03/25 07:02:48;;;;;;;187.55;61.90;;;;;;;5.05;88.48;103278.84;5077694;28;20080;-78
2022/03/25 07:05:16;;;;;;;166.82;59.10;;;;;;;5.15;88.06;103276.13;5078967;28;20696;-73
2022/03/25 07:07:45;;;;;;;177.65;60.83;;;;;;;5.25;87.96;103288.97;5076552;28;20509;-76
2022/03/25 07:10:16;;;;;;;185.73;63.13;;;;;;;5.40;87.82;103284.91;5077988;28;20130;-73
2022/03/25 07:12:46;;;;;;;178.75;62.70;;;;;;;5.56;87.82;103293.03;5077131;28;20059;-73
2022/03/25 07:15:14;;;;;;;189.30;64.50;;;;;;;5.70;86.78;103296.63;5075861;28;20574;-73
2022/03/25 07:17:44;;;;;;;197.32;67.88;;;;;;;5.88;86.76;103294.44;5076866;28;20051;-73
2022/03/25 07:20:14;;;;;;;187.48;61.05;;;;;;;6.05;86.09;103293.97;5073558;28;20480;-78
2022/03/25 07:22:43;;;;;;;200.68;66.90;;;;;;;6.26;85.34;103298.84;5078251;28;20071;-78
2022/03/25 07:25:12;;;;;;;209.38;68.72;;;;;;;6.47;85.25;103302.94;5076084;28;20075;-75
2022/03/25 07:27:41;;;;;;;201.80;69.65;;;;;;;6.68;84.44;103304.41;5077122;28;20605;-78
2022/03/25 07:30:11;;;;;;;211.20;70.22;;;;;;;6.93;83.40;103298.25;5077663;28;20139;-75
2022/03/25 07:32:39;;;;;;;209.90;69.93;;;;;;;7.17;83.27;103292.97;5066618;28;20055;-78
2022/03/25 07:35:11;;;;;;;222.27;68.40;;;;;;;7.36;81.81;103295.03;5071672;28;20074;-73
2022/03/25 07:37:40;;;;;;;232.45;70.75;;;;;;;7.57;81.36;103294.63;5075202;28;20118;-73
2022/03/25 07:40:12;;;;;;;229.20;68.32;;;;;;;7.81;80.68;103306.66;5073555;28;20120;-77
2022/03/25 07:42:42;;;;;;;220.02;68.50;;;;;;;7.94;80.04;103301.41;5077066;28;20063;-77
2022/03/25 07:45:13;;;;;;;221.68;72.20;;;;;;;8.17;78.94;103295.91;5056427;28;20132;-77
2022/03/25 07:47:47;;;;;;;233.35;69.30;;;;;;;8.22;77.84;103295.28;5073782;28;20050;-74
2022/03/25 07:50:17;;;;;;;227.10;67.95;;;;;;;8.48;77.03;103300.41;5073407;28;20171;-73
2022/03/25 07:52:46;;;;;;;213.27;66.30;;;;;;;8.58;76.28;103302.75;5077416;28;20054;-78
2022/03/25 07:55:17;;;;;;;213.77;65.22;;;;;;;8.72;75.44;103306.22;5080954;28;20097;-78
2022/03/25 07:57:46;;;;;;;219.00;69.68;;;;;;;8.63;73.79;103306.56;5078515;28;20044;-78
2022/03/25 08:00:15;;;;;;;212.88;68.05;;;;;;;8.80;73.86;103318.03;5083324;28;20040;-78
2022/03/25 08:02:46;;;;;;;207.50;63.08;;;;;;;9.10;73.31;103319.84;5077226;28;20058;-78
2022/03/25 08:05:16;;;;;;;214.60;65.95;;;;;;;9.25;72.40;103321.56;5075405;28;20051;-74
2022/03/25 08:07:48;;;;;;;203.73;61.92;;;;;;;9.33;72.08;103320.28;5073304;28;20143;-73
2022/03/25 08:10:18;;;;;;;219.05;64.57;;;;;;;9.40;70.76;103322.41;5074025;28;20063;-74
2022/03/25 08:12:46;;;;;;;212.25;65.32;;;;;;;9.47;70.61;103322.84;5075079;28;20064;-73
2022/03/25 08:15:14;;;;;;;185.30;60.80;;;;;;;9.60;69.77;103326.19;5071003;28;20165;-74
2022/03/25 08:17:48;;;;;;;196.95;60.75;;;;;;;9.55;68.80;103328.53;5072797;28;20116;-74
2022/03/25 08:20:22;;;;;;;184.82;57.90;;;;;;;9.77;68.50;103330.66;5072234;28;20169;-74
2022/03/25 08:22:50;;;;;;;191.00;58.38;;;;;;;9.85;68.20;103331.97;5076406;28;20105;-74
2022/03/25 08:28:05;;;;;;;194.25;59.13;;;;;;;10.28;66.73;103343.16;5079519;28;20143;-74
2022/03/25 08:30:34;;;;;;;180.20;57.95;;;;;;;10.22;66.13;103348.06;5073467;28;20072;-74
2022/03/25 08:33:05;;;;;;;188.38;60.00;;;;;;;10.37;66.40;103342.75;5070373;28;20055;-74
2022/03/25 08:35:38;;;;;;;172.93;56.47;;;;;;;10.44;65.80;103344.84;5072263;28;20058;-74
2022/03/25 08:38:07;;;;;;;187.25;59.22;;;;;;;10.57;66.26;103349.94;5068626;28;20489;-73
2022/03/25 08:40:36;;;;;;;170.90;55.92;;;;;;;10.72;65.21;103345.47;5071630;28;20068;-77
2022/03/25 08:43:23;;;;;;;190.85;57.35;;;;;;;10.98;64.62;103345.94;5074747;28;20081;-77
2022/03/25 08:45:51;;;;;;;180.07;58.13;;;;;;;11.14;63.89;103344.16;5067263;28;20198;-71
2022/03/25 08:48:20;;;;;;;158.32;53.78;;;;;;;11.27;63.29;103337.81;5073838;28;20079;-73
2022/03/25 08:50:49;;;;;;;149.85;51.47;;;;;;;11.40;62.60;103340.22;5070329;28;20138;-74
2022/03/25 08:53:17;;;;;;;153.85;51.00;;;;;;;11.46;62.30;103340.50;5070903;28;20089;-73
2022/03/25 08:55:45;;;;;;;158.52;54.70;;;;;;;11.52;61.89;103346.88;5070744;28;20521;-73
2022/03/25 08:58:13;;;;;;;146.25;52.63;;;;;;;11.66;61.17;103346.72;5071825;28;20055;-74
2022/03/25 09:00:41;;;;;;;161.75;53.40;;;;;;;11.86;61.29;103339.84;5075887;28;20115;-73
2022/03/25 09:03:10;;;;;;;150.05;51.85;;;;;;;12.20;61.39;103342.31;5079189;28;20055;-74
2022/03/25 09:05:39;;;;;;;153.35;51.88;;;;;;;12.18;60.15;103343.97;5071361;28;20131;-74
2022/03/25 09:08:08;;;;;;;137.40;52.55;;;;;;;12.28;59.63;103348.84;5070200;28;20134;-75
2022/03/25 09:10:36;;;;;;;137.93;48.13;;;;;;;12.65;59.12;103346.13;5070080;28;20032;-75
2022/03/25 09:13:04;;;;;;;142.35;49.45;;;;;;;12.85;59.23;103346.09;5075770;28;20285;-78
2022/03/25 09:15:33;;;;;;;132.80;47.53;;;;;;;12.90;57.62;103349.81;5075759;28;20036;-78
2022/03/25 09:18:01;;;;;;;129.95;45.40;;;;;;;13.05;57.63;103347.84;5075255;28;20485;-78
2022/03/25 09:20:34;;;;;;;138.40;47.27;;;;;;;12.98;57.68;103348.44;5069322;28;20476;-77
2022/03/25 09:23:02;;;;;;;129.60;46.70;;;;;;;12.98;56.55;103345.78;5070102;28;20090;-77
2022/03/25 09:25:32;;;;;;;132.40;47.97;;;;;;;12.73;55.85;103352.63;5073502;28;20076;-77
2022/03/25 09:28:00;;;;;;;124.90;45.97;;;;;;;12.89;55.41;103350.66;5074489;28;20048;-77
2022/03/25 09:30:28;;;;;;;118.35;44.50;;;;;;;13.04;54.67;103348.69;5071407;28;20593;-77
2022/03/25 09:33:04;;;;;;;123.22;42.95;;;;;;;13.13;54.37;103349.09;5075095;28;20044;-75
2022/03/25 09:35:35;;;;;;;120.22;44.03;;;;;;;13.43;53.68;103345.97;5064967;28;20273;-75
2022/03/25 09:38:03;;;;;;;109.82;40.85;;;;;;;13.34;53.54;103346.50;5079407;28;20529;-75
2022/03/25 09:40:33;;;;;;;116.72;44.40;;;;;;;13.38;53.60;103348.41;5072205;28;20117;-75
2022/03/25 09:43:01;;;;;;;112.95;41.95;;;;;;;13.78;53.22;103343.00;5072505;28;20052;-75
2022/03/25 09:45:31;;;;;;;121.13;44.25;;;;;;;13.74;52.69;103351.63;5076754;28;20052;-74
2022/03/25 09:47:59;;;;;;;109.43;41.35;;;;;;;13.99;52.08;103348.22;5074387;28;20087;-75
2022/03/25 09:50:31;;;;;;;102.57;41.78;;;;;;;14.20;51.62;103351.69;5072028;28;20053;-75
2022/03/25 09:52:59;;;;;;;108.25;39.78;;;;;;;14.08;50.40;103344.19;5072236;28;20054;-75
2022/03/25 09:55:40;;;;;;;102.15;38.40;;;;;;;14.13;49.11;103346.13;5070533;28;20175;-75
2022/03/25 09:58:10;;;;;;;95.93;40.47;;;;;;;14.00;48.91;103344.75;5072827;28;20079;-75
2022/03/25 10:00:38;;;;;;;99.97;39.10;;;;;;;13.99;49.19;103348.22;5078271;28;20159;-75
2022/03/25 10:03:07;;;;;;;89.03;38.30;;;;;;;14.15;49.28;103347.06;5077897;28;20044;-75
2022/03/25 10:05:54;;;;;;;94.68;39.53;;;;;;;14.54;49.24;103348.63;5076185;28;20101;-75
2022/03/25 10:08:35;;;;;;;96.05;37.55;;;;;;;14.72;46.98;103351.91;5076180;28;20040;-74
2022/03/25 10:11:24;;;;;;;84.78;34.70;;;;;;;14.61;46.81;103347.97;5078808;28;20036;-74
2022/03/25 10:14:18;;;;;;;87.60;35.20;;;;;;;14.75;46.19;103350.19;5076194;28;20059;-74
2022/03/25 10:16:49;;;;;;;96.70;37.60;;;;;;;14.68;46.27;103339.41;5076530;28;20040;-73
2022/03/25 10:19:19;;;;;;;85.65;36.30;;;;;;;14.50;46.72;103343.16;5075650;28;20044;-74
2022/03/25 10:21:52;;;;;;;82.78;33.63;;;;;;;14.90;46.26;103345.47;5079878;28;20100;-74
2022/03/25 10:24:39;;;;;;;87.53;35.50;;;;;;;15.16;45.83;103333.16;5074865;28;20123;-74
2022/03/25 10:27:18;;;;;;;91.45;37.95;;;;;;;15.24;45.67;103327.28;5075458;28;20061;-74
2022/03/25 10:29:47;;;;;;;77.95;33.03;;;;;;;15.67;44.49;103333.97;5075103;28;20546;-73
2022/03/25 10:32:18;;;;;;;67.47;30.45;;;;;;;15.77;43.12;103321.94;5066889;28;20060;-73
2022/03/25 10:35:01;;;;;;;74.20;33.10;;;;;;;15.21;43.31;103326.28;5072959;28;20113;-73
2022/03/25 10:37:29;;;;;;;78.25;32.72;;;;;;;15.56;43.88;103330.09;5080153;28;20044;-75
2022/03/25 10:39:57;;;;;;;77.28;31.08;;;;;;;15.52;42.16;103323.81;5065458;28;20054;-77
2022/03/25 10:42:26;;;;;;;68.25;29.38;;;;;;;15.79;42.53;103322.88;5079355;28;20040;-77
2022/03/25 10:44:59;;;;;;;78.78;32.60;;;;;;;15.46;42.73;103325.34;5080854;28;20413;-75
2022/03/25 10:47:28;;;;;;;86.65;35.97;;;;;;;15.42;43.22;103321.72;5073716;28;20214;-75
2022/03/25 10:50:13;;;;;;;74.35;32.60;;;;;;;15.49;42.50;103322.81;5066341;28;20059;-76
2022/03/25 10:52:43;;;;;;;68.32;29.23;;;;;;;15.53;41.52;103324.69;5075308;28;20048;-77
2022/03/25 10:55:19;;;;;;;70.45;29.58;;;;;;;15.44;41.75;103319.13;5076086;28;20050;-74
2022/03/25 10:57:54;;;;;;;60.80;26.25;;;;;;;15.91;40.92;103312.69;5075130;28;20120;-74
2022/03/25 11:00:22;;;;;;;66.15;27.95;;;;;;;16.03;41.35;103313.94;5075671;28;20125;-74
2022/03/25 11:02:51;;;;;;;71.88;32.30;;;;;;;15.47;41.19;103314.81;5075880;28;20044;-74
2022/03/25 11:05:20;;;;;;;65.32;27.98;;;;;;;15.57;40.74;103313.41;5075193;28;20619;-75
2022/03/25 11:07:50;;;;;;;59.17;26.08;;;;;;;15.92;40.25;103310.06;5073377;28;20044;-75
2022/03/25 11:10:19;;;;;;;58.83;25.85;;;;;;;15.88;39.81;103302.00;5075530;28;20123;-74
2022/03/25 11:12:48;;;;;;;60.97;24.15;;;;;;;15.99;38.95;103314.72;5074182;28;20135;-74
2022/03/25 11:15:19;;;;;;;56.65;23.23;;;;;;;15.92;38.83;103296.84;5073833;28;20127;-75
2022/03/25 11:17:48;;;;;;;52.10;21.63;;;;;;;16.33;37.97;103297.16;5072931;28;20052;-75
2022/03/25 11:20:20;;;;;;;54.08;22.10;;;;;;;15.96;37.49;103301.38;5075770;28;20171;-74
2022/03/25 11:23:01;;;;;;;51.05;23.00;;;;;;;15.68;38.54;103304.94;5078468;28;20052;-74
2022/03/25 11:25:34;;;;;;;53.22;21.95;;;;;;;16.13;37.78;103295.69;5075042;28;20048;-74
2022/03/25 11:28:12;;;;;;;57.50;22.55;;;;;;;16.21;37.68;103296.81;5077194;28;20456;-74